createdAt,value
2023-04-24T00:02:28.739Z,3.27
2023-04-24T00:04:57.692Z,3.50
2023-04-24T00:07:26.281Z,3.10
2023-04-24T00:09:55.346Z,3.20
2023-04-24T00:12:23.800Z,2.60
2023-04-24T00:14:52.757Z,3.40
2023-04-24T00:17:22.910Z,2.87
2023-04-24T00:19:52.283Z,2.77
2023-04-24T00:22:21.779Z,3.13
2023-04-24T00:24:50.381Z,3.00
2023-04-24T00:27:18.824Z,2.47
2023-04-24T00:29:47.659Z,3.00
2023-04-24T00:32:16.330Z,2.70
2023-04-24T00:34:46.267Z,2.63
2023-04-24T00:37:14.692Z,3.30
2023-04-24T00:39:43.858Z,2.40
2023-04-24T00:42:12.573Z,2.50
2023-04-24T00:44:40.994Z,2.50
2023-04-24T00:47:09.437Z,2.60
2023-04-24T00:49:37.996Z,2.50
2023-04-24T00:52:09.810Z,2.20
2023-04-24T00:54:38.612Z,1.83
2023-04-24T00:57:07.069Z,1.93
2023-04-24T00:59:35.496Z,1.80
2023-04-24T01:02:04.255Z,1.47
2023-04-24T01:04:33.060Z,1.90
2023-04-24T01:07:01.957Z,1.50
2023-04-24T01:09:32.001Z,1.37
2023-04-24T01:12:01.521Z,1.40
2023-04-24T01:14:30.142Z,1.77
2023-04-24T01:16:58.617Z,1.50
2023-04-24T01:19:27.315Z,1.70
2023-04-24T01:21:56.545Z,1.50
2023-04-24T01:24:26.389Z,1.20
2023-04-24T01:26:54.835Z,2.00
2023-04-24T01:29:23.496Z,2.07
2023-04-24T01:31:52.130Z,2.07
2023-04-24T01:34:20.825Z,2.27
2023-04-24T01:36:49.444Z,2.20
2023-04-24T01:39:18.013Z,2.40
2023-04-24T01:41:47.728Z,2.40
2023-04-24T01:44:16.120Z,2.17
2023-04-24T01:46:44.599Z,2.30
2023-04-24T01:49:13.185Z,2.13
2023-04-24T01:51:41.762Z,2.30
2023-04-24T01:54:10.148Z,2.20
2023-04-24T01:56:38.829Z,2.17
2023-04-24T01:59:09.057Z,2.73
2023-04-24T02:01:38.156Z,2.23
2023-04-24T02:04:06.855Z,2.27
2023-04-24T02:06:35.642Z,2.30
2023-04-24T02:09:04.130Z,2.70
2023-04-24T02:11:32.713Z,2.57
2023-04-24T02:14:01.111Z,2.90
2023-04-24T02:16:33.295Z,2.97
2023-04-24T02:19:02.080Z,3.17
2023-04-24T02:21:31.781Z,3.50
2023-04-24T02:24:00.374Z,2.10
2023-04-24T02:26:28.986Z,2.10
2023-04-24T02:28:57.520Z,1.67
2023-04-24T02:31:26.109Z,1.60
2023-04-24T02:33:56.111Z,2.00
2023-04-24T02:36:24.574Z,1.60
2023-04-24T02:38:53.243Z,1.40
2023-04-24T02:41:21.889Z,1.40
2023-04-24T02:43:50.712Z,1.40
2023-04-24T02:46:19.157Z,1.40
2023-04-24T02:48:47.604Z,1.60
2023-04-24T02:51:17.448Z,1.77
2023-04-24T02:53:46.101Z,1.57
2023-04-24T02:56:14.763Z,1.80
2023-04-24T02:58:43.340Z,1.80
2023-04-24T03:01:12.046Z,2.20
2023-04-24T03:03:41.933Z,1.90
2023-04-24T03:06:10.610Z,2.47
2023-04-24T03:08:40.634Z,1.80
2023-04-24T03:11:09.137Z,1.60
2023-04-24T03:13:37.676Z,1.37
2023-04-24T03:16:06.771Z,1.40
2023-04-24T03:18:38.061Z,1.83
2023-04-24T03:21:06.544Z,1.70
2023-04-24T03:23:35.012Z,1.80
2023-04-24T03:26:04.827Z,1.60
2023-04-24T03:28:33.252Z,1.80
2023-04-24T03:31:01.957Z,1.70
2023-04-24T03:33:30.759Z,1.27
2023-04-24T03:35:59.214Z,1.90
2023-04-24T03:38:27.684Z,1.70
2023-04-24T03:40:56.463Z,1.60
2023-04-24T03:43:28.401Z,3.27
2023-04-24T03:45:56.830Z,1.90
2023-04-24T03:48:25.717Z,1.63
2023-04-24T03:50:54.325Z,1.80
2023-04-24T03:53:26.315Z,1.60
2023-04-24T03:55:54.836Z,2.20
2023-04-24T03:58:23.208Z,2.23
2023-04-24T04:00:53.156Z,1.93
2023-04-24T04:03:22.074Z,1.63
2023-04-24T04:05:50.765Z,2.27
2023-04-24T04:08:19.224Z,2.63
2023-04-24T04:10:47.689Z,2.80
2023-04-24T04:13:16.158Z,4.07
2023-04-24T04:15:44.708Z,5.03
2023-04-24T04:18:14.840Z,5.20
2023-04-24T04:20:43.281Z,6.20
2023-04-24T04:23:11.750Z,7.00
2023-04-24T04:25:40.191Z,6.10
2023-04-24T04:28:08.697Z,5.37
2023-04-24T04:30:39.284Z,6.00
2023-04-24T04:33:07.833Z,6.47
2023-04-24T04:35:37.802Z,6.80
2023-04-24T04:38:09.434Z,8.53
2023-04-24T04:40:37.860Z,9.30
2023-04-24T04:43:07.495Z,9.43
2023-04-24T04:45:36.504Z,11.47
2023-04-24T04:48:05.128Z,11.93
2023-04-24T04:50:33.641Z,12.77
2023-04-24T04:53:03.332Z,13.83
2023-04-24T04:55:31.818Z,12.30
2023-04-24T04:58:01.323Z,13.60
2023-04-24T05:00:30.074Z,13.57
2023-04-24T05:03:06.159Z,12.70
2023-04-24T05:05:46.837Z,12.50
2023-04-24T05:08:26.644Z,11.23
2023-04-24T05:10:55.914Z,10.87
2023-04-24T05:15:55.928Z,11.73
2023-04-24T05:18:24.335Z,12.87
2023-04-24T05:20:52.710Z,12.73
2023-04-24T05:23:22.698Z,11.57
2023-04-24T05:25:51.267Z,13.37
2023-04-24T05:28:19.868Z,13.87
2023-04-24T05:30:48.622Z,12.20
2023-04-24T05:33:17.060Z,12.97
2023-04-24T05:35:47.772Z,12.53
2023-04-24T05:38:19.005Z,12.73
2023-04-24T05:40:48.842Z,12.33
2023-04-24T05:43:17.322Z,12.57
2023-04-24T05:45:45.723Z,13.13
2023-04-24T05:48:14.293Z,12.03
2023-04-24T05:50:42.878Z,11.83
2023-04-24T05:53:11.746Z,11.10
2023-04-24T05:55:40.374Z,10.20
2023-04-24T05:58:10.853Z,10.00
2023-04-24T06:00:40.857Z,8.63
2023-04-24T06:03:09.545Z,9.00
2023-04-24T06:05:38.232Z,8.20
2023-04-24T06:08:07.322Z,8.03
2023-04-24T06:10:36.235Z,8.03
2023-04-24T06:13:04.831Z,7.10
2023-04-24T06:15:34.640Z,7.93
2023-04-24T06:18:03.424Z,7.27
2023-04-24T06:20:33.116Z,6.43
2023-04-24T06:23:01.727Z,7.27
2023-04-24T06:25:30.431Z,7.00
2023-04-24T06:27:59.400Z,8.17
2023-04-24T06:30:29.571Z,7.17
2023-04-24T06:33:12.880Z,6.73
2023-04-24T06:35:48.852Z,7.37
2023-04-24T06:38:17.726Z,6.30
2023-04-24T06:40:46.335Z,6.87
2023-04-24T06:43:16.111Z,6.73
2023-04-24T06:45:45.385Z,6.13
2023-04-24T06:48:16.327Z,5.97
2023-04-24T06:50:44.767Z,5.87
2023-04-24T06:53:16.407Z,6.10
2023-04-24T06:55:45.830Z,5.33
2023-04-24T06:58:15.530Z,5.00
2023-04-24T07:00:43.870Z,5.37
2023-04-24T07:03:12.366Z,4.27
2023-04-24T07:05:42.700Z,4.13
2023-04-24T07:08:12.481Z,5.23
2023-04-24T07:10:44.351Z,4.83
2023-04-24T07:13:15.923Z,4.00
2023-04-24T07:15:44.592Z,4.77
2023-04-24T07:18:13.173Z,4.93
2023-04-24T07:20:43.182Z,4.37
2023-04-24T07:23:11.767Z,4.10
2023-04-24T07:25:40.715Z,3.90
2023-04-24T07:28:09.659Z,3.83
2023-04-24T07:30:38.182Z,3.83
2023-04-24T07:33:07.867Z,3.90
2023-04-24T07:35:36.818Z,3.10
2023-04-24T07:38:06.940Z,3.80
2023-04-24T07:40:35.621Z,3.70
2023-04-24T07:43:04.214Z,3.40
2023-04-24T07:45:34.755Z,3.00
2023-04-24T07:48:03.317Z,3.20
2023-04-24T07:50:31.939Z,3.17
2023-04-24T07:53:00.458Z,3.27
2023-04-24T07:55:30.245Z,3.27
2023-04-24T07:57:58.650Z,3.40
2023-04-24T08:00:27.155Z,2.77
2023-04-24T08:02:55.924Z,2.97
2023-04-24T08:05:26.672Z,3.53
2023-04-24T08:07:55.544Z,2.90
2023-04-24T08:10:23.990Z,2.87
2023-04-24T08:12:53.735Z,2.50
2023-04-24T08:15:22.174Z,3.47
2023-04-24T08:17:50.951Z,2.87
2023-04-24T08:20:19.455Z,2.60
2023-04-24T08:22:49.770Z,2.70
2023-04-24T08:25:19.088Z,2.77
2023-04-24T08:27:47.591Z,2.87
2023-04-24T08:30:17.728Z,2.30
2023-04-24T08:32:46.228Z,2.23
2023-04-24T08:35:14.789Z,2.40
2023-04-24T08:37:43.253Z,2.30
2023-04-24T08:40:15.201Z,1.93
2023-04-24T08:42:45.470Z,1.90
2023-04-24T08:45:14.414Z,1.43
2023-04-24T08:47:45.328Z,1.87
2023-04-24T08:50:14.122Z,1.73
2023-04-24T08:52:42.659Z,1.50
2023-04-24T08:55:11.343Z,1.97
2023-04-24T08:57:41.473Z,1.70
2023-04-24T09:00:13.826Z,1.50
2023-04-24T09:02:45.155Z,2.10
2023-04-24T09:05:13.797Z,1.70
2023-04-24T09:07:42.377Z,1.50
2023-04-24T09:10:11.490Z,1.50
2023-04-24T09:12:48.715Z,1.60
2023-04-24T09:15:18.242Z,1.77
2023-04-24T09:17:48.557Z,1.40
2023-04-24T09:20:17.387Z,1.83
2023-04-24T09:22:46.107Z,1.07
2023-04-24T09:25:14.921Z,1.50
2023-04-24T09:27:46.473Z,1.33
2023-04-24T09:30:15.521Z,1.37
2023-04-24T09:32:44.118Z,1.30
2023-04-24T09:35:14.915Z,1.50
2023-04-24T09:37:43.804Z,1.80
2023-04-24T09:40:15.809Z,1.30
2023-04-24T09:42:46.656Z,1.30
2023-04-24T09:45:15.907Z,1.73
2023-04-24T09:47:44.974Z,1.70
2023-04-24T09:50:19.595Z,2.90
2023-04-24T09:52:49.865Z,1.70
2023-04-24T09:55:19.608Z,1.17
2023-04-24T09:57:52.315Z,1.37
2023-04-24T10:00:23.532Z,1.50
2023-04-24T10:02:58.630Z,1.30
2023-04-24T10:05:30.054Z,1.30
2023-04-24T10:08:03.840Z,1.63
2023-04-24T10:10:32.418Z,1.43
2023-04-24T10:13:00.883Z,1.60
2023-04-24T10:15:29.605Z,2.33
2023-04-24T10:17:58.230Z,2.00
2023-04-24T10:20:27.316Z,1.73
2023-04-24T10:22:57.359Z,2.07
2023-04-24T10:25:26.441Z,1.90
2023-04-24T10:27:58.315Z,1.80
2023-04-24T10:30:26.742Z,2.20
2023-04-24T10:32:55.303Z,1.23
2023-04-24T10:35:27.779Z,2.00
2023-04-24T10:37:59.205Z,2.07
2023-04-24T10:40:28.944Z,1.90
2023-04-24T10:42:58.695Z,1.50
2023-04-24T10:45:27.781Z,1.60
2023-04-24T10:47:57.071Z,1.53
2023-04-24T10:50:25.964Z,1.67
2023-04-24T10:52:55.722Z,1.47
2023-04-24T10:55:44.218Z,1.30
2023-04-24T10:58:12.720Z,1.13
2023-04-24T11:00:41.418Z,1.10
2023-04-24T11:03:10.102Z,1.20
2023-04-24T11:05:53.685Z,0.90
2023-04-24T11:08:26.956Z,1.20
2023-04-24T11:11:04.142Z,1.00
2023-04-24T11:13:50.556Z,1.23
2023-04-24T11:16:23.019Z,1.40
2023-04-24T11:18:55.196Z,1.73
2023-04-24T11:21:23.587Z,1.10
2023-04-24T11:23:53.184Z,1.20
2023-04-24T11:26:25.586Z,1.50
2023-04-24T11:28:54.002Z,1.73
2023-04-24T11:31:38.749Z,1.40
2023-04-24T11:34:10.768Z,1.50
2023-04-24T11:36:39.186Z,1.73
2023-04-24T11:39:07.936Z,1.63
2023-04-24T11:41:37.831Z,1.50
2023-04-24T11:44:06.415Z,2.50
2023-04-24T11:46:37.719Z,2.53
2023-04-24T11:49:07.956Z,2.07
2023-04-24T11:51:44.565Z,2.23
2023-04-24T11:54:19.918Z,2.23
2023-04-24T11:56:50.352Z,1.93
2023-04-24T11:59:18.791Z,2.30
2023-04-24T12:01:47.598Z,1.80
2023-04-24T12:04:16.313Z,3.33
2023-04-24T12:06:59.690Z,2.07
2023-04-24T12:09:28.060Z,3.13
2023-04-24T12:11:58.114Z,3.20
2023-04-24T12:14:26.599Z,2.80
2023-04-24T12:16:55.048Z,2.60
2023-04-24T12:19:23.626Z,2.67
2023-04-24T12:22:02.509Z,3.17
2023-04-24T12:24:31.849Z,3.43
2023-04-24T12:27:02.686Z,2.63
2023-04-24T12:29:31.136Z,2.70
2023-04-24T12:31:59.491Z,3.07
2023-04-24T12:34:27.890Z,2.83
2023-04-24T12:36:56.398Z,2.50
2023-04-24T12:39:27.733Z,3.00
2023-04-24T12:41:59.259Z,3.63
2023-04-24T12:44:35.788Z,3.57
2023-04-24T12:47:04.789Z,4.07
2023-04-24T12:49:33.553Z,3.57
2023-04-24T12:52:01.898Z,3.03
2023-04-24T12:54:35.203Z,3.00
2023-04-24T12:57:03.623Z,2.80
2023-04-24T12:59:32.144Z,3.17
2023-04-24T13:02:02.041Z,4.30
2023-04-24T13:04:30.652Z,3.60
2023-04-24T13:06:59.337Z,3.00
2023-04-24T13:09:27.689Z,3.57
2023-04-24T13:11:56.333Z,4.00
2023-04-24T13:14:24.706Z,3.13
2023-04-24T13:16:53.524Z,3.33
2023-04-24T13:19:23.579Z,3.63
2023-04-24T13:21:51.900Z,3.57
2023-04-24T13:24:21.090Z,3.57
2023-04-24T13:26:49.578Z,3.30
2023-04-24T13:29:17.981Z,2.97
2023-04-24T13:31:46.618Z,2.80
2023-04-24T13:34:15.456Z,2.73
2023-04-24T13:36:45.331Z,2.50
2023-04-24T13:39:13.916Z,2.67
2023-04-24T13:41:42.373Z,2.57
2023-04-24T13:44:10.748Z,2.67
2023-04-24T13:46:39.198Z,2.60
2023-04-24T13:49:07.605Z,3.40
2023-04-24T13:51:35.932Z,3.30
2023-04-24T13:54:05.831Z,3.57
2023-04-24T13:56:34.293Z,3.97
2023-04-24T13:59:03.290Z,4.43
2023-04-24T14:01:31.836Z,3.50
2023-04-24T14:04:01.017Z,3.77
2023-04-24T14:06:29.693Z,4.20
2023-04-24T14:08:58.078Z,3.90
2023-04-24T14:11:28.033Z,4.77
2023-04-24T14:13:57.310Z,4.03
2023-04-24T14:16:25.885Z,3.67
2023-04-24T14:18:54.485Z,3.90
2023-04-24T14:21:23.053Z,3.80
2023-04-24T14:23:52.081Z,4.10
2023-04-24T14:26:20.538Z,4.37
2023-04-24T14:28:51.223Z,3.93
2023-04-24T14:31:20.946Z,4.30
2023-04-24T14:33:49.530Z,3.97
2023-04-24T14:36:18.041Z,4.03
2023-04-24T14:38:46.580Z,3.80
2023-04-24T14:41:16.543Z,3.30
2023-04-24T14:43:45.135Z,3.70
2023-04-24T14:46:15.151Z,3.60
2023-04-24T14:48:43.679Z,3.50
2023-04-24T14:51:12.074Z,3.37
2023-04-24T14:53:40.436Z,3.33
2023-04-24T14:56:09.146Z,3.30
2023-04-24T14:58:37.587Z,3.10
2023-04-24T15:01:06.243Z,3.40
2023-04-24T15:03:36.237Z,4.20
2023-04-24T15:06:04.795Z,3.90
2023-04-24T15:08:33.607Z,4.40
2023-04-24T15:11:01.998Z,4.83
2023-04-24T15:13:30.537Z,5.03
2023-04-24T15:15:58.917Z,4.50
2023-04-24T15:18:29.026Z,4.83
2023-04-24T15:20:58.948Z,4.57
2023-04-24T15:23:27.329Z,4.37
2023-04-24T15:25:55.839Z,4.27
2023-04-24T15:28:24.292Z,4.57
2023-04-24T15:30:52.978Z,4.43
2023-04-24T15:33:21.841Z,4.50
2023-04-24T15:35:51.324Z,4.50
2023-04-24T15:38:21.203Z,4.77
2023-04-24T15:40:50.642Z,4.60
2023-04-24T15:43:19.283Z,4.70
2023-04-24T15:45:47.956Z,4.37
2023-04-24T15:48:16.538Z,3.33
2023-04-24T15:50:45.189Z,4.00
2023-04-24T15:53:13.598Z,3.27
2023-04-24T15:55:43.454Z,3.37
2023-04-24T15:58:11.951Z,4.40
2023-04-24T16:00:40.946Z,3.70
2023-04-24T16:03:10.386Z,4.33
2023-04-24T16:05:39.003Z,4.10
2023-04-24T16:08:07.637Z,4.70
2023-04-24T16:10:36.195Z,4.27
2023-04-24T16:13:06.576Z,4.30
2023-04-24T16:15:36.246Z,4.07
2023-04-24T16:18:04.765Z,3.50
2023-04-24T16:20:33.268Z,4.57
2023-04-24T16:23:01.720Z,3.90
2023-04-24T16:25:30.335Z,4.67
2023-04-24T16:27:58.807Z,3.93
2023-04-24T16:30:28.643Z,4.27
2023-04-24T16:32:57.116Z,4.20
2023-04-24T16:35:25.717Z,4.93
2023-04-24T16:37:54.134Z,4.30
2023-04-24T16:40:22.529Z,4.50
2023-04-24T16:42:52.760Z,4.77
2023-04-24T16:45:21.365Z,5.37
2023-04-24T16:47:51.243Z,5.03
2023-04-24T16:50:19.750Z,4.50
2023-04-24T16:52:48.159Z,4.40
2023-04-24T16:55:16.622Z,4.40
2023-04-24T16:57:45.212Z,4.13
2023-04-24T17:00:14.268Z,4.03
2023-04-24T17:02:43.925Z,4.00
2023-04-24T17:05:13.747Z,4.07
2023-04-24T17:07:48.258Z,4.20
2023-04-24T17:10:16.629Z,3.90
2023-04-24T17:12:45.303Z,4.27
2023-04-24T17:15:13.714Z,4.67
2023-04-24T17:17:44.329Z,4.63
2023-04-24T17:20:22.282Z,4.53
2023-04-24T17:22:52.182Z,4.03
2023-04-24T17:25:21.174Z,3.70
2023-04-24T17:27:49.644Z,4.17
2023-04-24T17:30:18.725Z,4.17
2023-04-24T17:32:47.259Z,4.23
2023-04-24T17:35:17.388Z,3.70
2023-04-24T17:37:45.853Z,3.10
2023-04-24T17:40:14.456Z,2.97
2023-04-24T17:42:42.864Z,3.03
2023-04-24T17:45:12.157Z,3.23
2023-04-24T17:47:41.196Z,3.20
2023-04-24T17:50:10.179Z,3.63
2023-04-24T17:52:40.089Z,4.20
2023-04-24T17:55:08.853Z,4.03
2023-04-24T17:57:37.579Z,3.87
2023-04-24T18:00:06.622Z,3.67
2023-04-24T18:02:36.466Z,4.10
2023-04-24T18:05:05.077Z,3.00
2023-04-24T18:07:34.105Z,3.63
2023-04-24T18:10:03.974Z,3.40
2023-04-24T18:12:32.511Z,3.57
2023-04-24T18:15:13.266Z,3.03
2023-04-24T18:17:42.662Z,4.27
2023-04-24T18:20:11.996Z,2.70
2023-04-24T18:22:40.391Z,3.37
2023-04-24T18:25:10.930Z,2.77
2023-04-24T18:27:39.428Z,3.00
2023-04-24T18:30:08.492Z,3.70
2023-04-24T18:32:36.964Z,3.00
2023-04-24T18:35:05.474Z,3.20
2023-04-24T18:37:34.205Z,2.57
2023-04-24T18:40:03.568Z,2.80
2023-04-24T18:42:33.325Z,1.90
2023-04-24T18:45:02.400Z,2.13
2023-04-24T18:47:30.873Z,2.27
2023-04-24T18:49:59.299Z,2.37
2023-04-24T18:52:27.709Z,2.30
2023-04-24T18:54:56.085Z,2.73
2023-04-24T18:57:30.614Z,1.90
2023-04-24T19:00:00.715Z,2.43
2023-04-24T19:02:29.322Z,2.37
2023-04-24T19:04:58.002Z,2.50
2023-04-24T19:07:26.524Z,2.40
2023-04-24T19:09:54.990Z,2.40
2023-04-24T19:12:23.429Z,2.83
2023-04-24T19:14:56.017Z,2.30
2023-04-24T19:17:26.038Z,2.23
2023-04-24T19:19:54.585Z,3.00
2023-04-24T19:22:23.085Z,2.80
2023-04-24T19:24:51.582Z,3.03
2023-04-24T19:27:19.946Z,2.33
2023-04-24T19:29:48.461Z,2.50
2023-04-24T19:32:17.192Z,2.93
2023-04-24T19:34:47.257Z,3.23
2023-04-24T19:37:15.639Z,3.00
2023-04-24T19:39:44.142Z,3.20
2023-04-24T19:42:12.786Z,2.70
2023-04-24T19:44:41.173Z,2.67
2023-04-24T19:47:09.828Z,3.30
2023-04-24T19:49:38.249Z,3.20
2023-04-24T19:52:08.253Z,2.97
2023-04-24T19:54:36.705Z,2.70
2023-04-24T19:57:05.484Z,2.60
2023-04-24T19:59:34.181Z,3.17
2023-04-24T20:02:02.583Z,3.50
2023-04-24T20:04:36.862Z,2.87
2023-04-24T20:07:05.574Z,2.63
2023-04-24T20:09:35.480Z,2.57
2023-04-24T20:12:03.971Z,3.30
2023-04-24T20:14:33.035Z,2.60
2023-04-24T20:17:01.948Z,2.67
2023-04-24T20:19:30.701Z,2.60
2023-04-24T20:22:01.645Z,2.83
2023-04-24T20:24:30.318Z,2.77
2023-04-24T20:27:00.214Z,3.27
2023-04-24T20:29:28.876Z,2.80
2023-04-24T20:31:57.587Z,3.00
2023-04-24T20:34:26.392Z,2.87
2023-04-24T20:36:56.614Z,2.77
2023-04-24T20:39:25.021Z,2.87
2023-04-24T20:41:56.506Z,3.03
2023-04-24T20:44:26.238Z,2.60
2023-04-24T20:46:54.774Z,3.23
2023-04-24T20:49:23.201Z,3.60
2023-04-24T20:51:51.682Z,3.33
2023-04-24T20:54:19.980Z,3.03
2023-04-24T20:56:48.613Z,3.37
2023-04-24T20:59:16.995Z,3.40
2023-04-24T21:01:48.753Z,3.37
2023-04-24T21:04:17.289Z,3.13
2023-04-24T21:06:45.748Z,2.70
2023-04-24T21:09:14.156Z,3.27
2023-04-24T21:11:43.403Z,2.50
2023-04-24T21:14:11.973Z,2.83
2023-04-24T21:16:40.521Z,3.00
2023-04-24T21:19:10.345Z,3.07
2023-04-24T21:21:38.737Z,3.07
2023-04-24T21:24:07.580Z,3.47
2023-04-24T21:26:35.984Z,3.47
2023-04-24T21:29:04.360Z,3.23
2023-04-24T21:31:32.715Z,3.13
2023-04-24T21:34:01.274Z,3.43
2023-04-24T21:36:32.700Z,3.00
2023-04-24T21:39:01.386Z,3.77
2023-04-24T21:41:29.777Z,3.30
2023-04-24T21:43:59.239Z,3.57
2023-04-24T21:46:27.635Z,3.27
2023-04-24T21:48:55.931Z,3.40
2023-04-24T21:51:24.269Z,4.10
2023-04-24T21:53:53.993Z,3.90
2023-04-24T21:56:22.339Z,3.90
2023-04-24T21:58:50.728Z,4.07
2023-04-24T22:01:19.189Z,3.77
2023-04-24T22:03:48.053Z,4.43
2023-04-24T22:06:16.811Z,3.63
2023-04-24T22:08:47.720Z,3.73
2023-04-24T22:11:26.759Z,4.53
2023-04-24T22:13:55.657Z,3.90
2023-04-24T22:16:24.744Z,4.63
2023-04-24T22:18:55.267Z,4.30
2023-04-24T22:21:24.057Z,4.40
2023-04-24T22:23:52.838Z,5.17
2023-04-24T22:26:22.726Z,4.57
2023-04-24T22:28:51.255Z,6.17
2023-04-24T22:31:19.632Z,4.50
2023-04-24T22:33:48.244Z,5.53
2023-04-24T22:36:16.850Z,5.00
2023-04-24T22:38:45.207Z,4.00
2023-04-24T22:41:13.752Z,6.13
2023-04-24T22:43:43.720Z,4.53
2023-04-24T22:46:12.171Z,5.03
2023-04-24T22:48:40.532Z,4.77
2023-04-24T22:51:08.971Z,4.30
2023-04-24T22:53:37.387Z,4.20
2023-04-24T22:56:06.033Z,5.10
2023-04-24T22:58:34.474Z,4.27
2023-04-24T23:01:04.364Z,4.07
2023-04-24T23:03:33.284Z,5.50
2023-04-24T23:06:02.007Z,4.87
2023-04-24T23:08:31.073Z,4.40
2023-04-24T23:10:59.456Z,4.70
2023-04-24T23:13:28.044Z,4.67
2023-04-24T23:15:56.661Z,4.83
2023-04-24T23:18:26.777Z,5.00
2023-04-24T23:20:55.149Z,4.40
2023-04-24T23:23:23.622Z,4.73
2023-04-24T23:25:52.165Z,4.60
2023-04-24T23:28:21.454Z,4.80
2023-04-24T23:30:49.930Z,4.20
2023-04-24T23:33:18.324Z,4.23
2023-04-24T23:35:48.033Z,4.17
2023-04-24T23:38:16.372Z,4.50
2023-04-24T23:40:44.945Z,4.40
2023-04-24T23:43:13.641Z,5.00
2023-04-24T23:45:42.273Z,4.23
2023-04-24T23:48:10.774Z,3.93
2023-04-24T23:50:39.444Z,3.50
2023-04-24T23:53:09.206Z,3.50
2023-04-24T23:55:37.629Z,4.07
2023-04-24T23:58:06.351Z,3.57
